Time;durP1;ratioP1;P1;durP2;ratioP2;P2;SDS_P1;SDS_P2;PMS_P1;PMS_P2;Temp;Humidity;BMP_temperature;BMP_pressure;BME280_temperature;BME280_humidity;BME280_pressure;Samples;Min_cycle;Max_cycle;Signal;HPM_P1;HPM_P2
2022/06/02 00:01:38;;;;;;;31.95;8.43;;;;;;;28.85;43.74;97420.81;5086796;28;20082;-72
2022/06/02 00:04:57;;;;;;;28.55;7.78;;;;;;;28.91;41.17;97425.34;5105019;28;20051;-70
2022/06/02 00:08:02;;;;;;;28.90;8.93;;;;;;;28.92;43.75;97422.50;5086611;28;20095;-70
2022/06/02 00:11:21;;;;;;;25.38;8.32;;;;;;;28.90;40.42;97423.69;5125743;27;20090;-70
2022/06/02 00:14:42;;;;;;;20.42;6.65;;;;;;;28.92;43.17;97432.28;5124681;27;20081;-71
2022/06/02 00:17:44;;;;;;;29.58;6.65;;;;;;;28.88;39.95;97425.75;5093893;27;20049;-71
2022/06/02 00:21:01;;;;;;;24.73;7.43;;;;;;;28.96;42.66;97433.56;5124500;27;20070;-70
2022/06/02 00:23:56;;;;;;;19.63;7.05;;;;;;;29.00;39.24;97434.81;5116742;27;20043;-72
2022/06/02 00:27:05;;;;;;;19.77;6.78;;;;;;;29.09;40.54;97436.31;5123827;27;20100;-70
2022/06/02 00:29:49;;;;;;;23.23;6.47;;;;;;;29.05;45.08;97443.03;5123788;27;20182;-70
2022/06/02 00:32:44;;;;;;;14.25;6.25;;;;;;;28.96;45.11;97438.88;5122818;27;20051;-71
2022/06/02 00:35:30;;;;;;;27.75;6.68;;;;;;;28.92;45.17;97435.75;5124474;27;20139;-70
2022/06/02 00:38:26;;;;;;;15.73;6.30;;;;;;;29.05;42.39;97447.50;5122916;27;20046;-69
2022/06/02 00:41:46;;;;;;;19.77;6.18;;;;;;;29.11;44.87;97452.84;5111822;27;20047;-68
2022/06/02 00:44:33;;;;;;;24.33;6.70;;;;;;;29.00;45.07;97463.97;5122077;28;23094;-71
2022/06/02 00:47:52;;;;;;;24.55;6.60;;;;;;;28.93;46.80;97455.16;5124402;27;20081;-70
2022/06/02 00:51:21;;;;;;;20.42;6.40;;;;;;;28.89;46.09;97464.53;5121002;27;20050;-69
2022/06/02 00:58:12;;;;;;;20.33;6.15;;;;;;;28.85;49.55;97463.25;5124931;28;20054;-70
2022/06/02 01:01:16;;;;;;;16.02;6.47;;;;;;;28.90;50.49;97474.09;5125106;28;20051;-70
2022/06/02 01:04:11;;;;;;;27.70;6.50;;;;;;;28.92;44.69;97472.91;5124909;27;20047;-70
2022/06/02 01:07:19;;;;;;;18.17;6.25;;;;;;;29.00;49.31;97479.06;5128430;27;20116;-70
2022/06/02 01:10:20;;;;;;;16.33;6.03;;;;;;;29.01;49.11;97478.88;5131288;27;20130;-67
2022/06/02 01:13:41;;;;;;;12.60;5.47;;;;;;;29.01;50.21;97489.50;5128997;27;20594;-70
2022/06/02 01:16:37;;;;;;;15.95;6.43;;;;;;;29.07;43.25;97493.19;5098733;27;20053;-69
2022/06/02 01:19:38;;;;;;;19.88;6.68;;;;;;;29.17;46.91;97489.22;5128929;27;20039;-71
2022/06/02 01:22:37;;;;;;;19.38;6.15;;;;;;;29.25;48.60;97493.56;5129288;27;20822;-71
2022/06/02 01:26:08;;;;;;;25.20;6.70;;;;;;;29.28;45.08;97501.97;5127831;27;20100;-70
2022/06/02 01:29:09;;;;;;;16.52;6.90;;;;;;;29.36;46.39;97503.69;5129336;27;20530;-71
2022/06/02 01:31:51;;;;;;;21.75;6.53;;;;;;;29.44;47.86;97510.69;5128194;27;20478;-71
2022/06/02 01:35:03;;;;;;;31.00;7.13;;;;;;;29.50;45.31;97524.00;5128944;27;20419;-70
2022/06/02 01:38:11;;;;;;;26.95;7.60;;;;;;;29.50;45.18;97521.34;5118470;27;20047;-72
2022/06/02 01:41:29;;;;;;;26.45;6.72;;;;;;;29.65;47.70;97522.03;5127104;27;20050;-70
2022/06/02 01:44:46;;;;;;;22.55;7.93;;;;;;;29.84;44.32;97530.34;5111410;28;20052;-71
2022/06/02 01:47:42;;;;;;;21.73;8.35;;;;;;;30.25;49.23;97530.38;5107233;27;20101;-70
2022/06/02 01:50:38;;;;;;;22.67;8.82;;;;;;;30.65;45.14;97520.69;5140268;27;20452;-71
2022/06/02 01:54:11;;;;;;;22.80;7.73;;;;;;;31.33;45.14;97532.84;5128262;27;20047;-71
2022/06/02 01:57:14;;;;;;;40.88;9.07;;;;;;;31.56;42.91;97532.44;5041445;28;20045;-70
2022/06/02 02:00:15;;;;;;;26.92;9.63;;;;;;;31.82;53.19;97535.09;5119756;27;20120;-71
2022/06/02 02:03:23;;;;;;;23.98;8.60;;;;;;;31.84;41.78;97550.88;5120687;27;20122;-71
2022/06/02 02:06:22;;;;;;;;;;;;;;;32.28;50.37;97555.47;5117368;27;20166;-69
2022/06/02 02:09:11;;;;;;;32.40;9.13;;;;;;;32.52;43.66;97546.75;5118549;27;19928;-71
2022/06/02 02:11:55;;;;;;;27.95;9.02;;;;;;;32.90;46.09;97552.09;5118804;27;20050;-70
2022/06/02 02:14:52;;;;;;;23.55;7.88;;;;;;;33.09;42.25;97552.19;5122926;27;20123;-71
2022/06/02 02:17:45;;;;;;;25.70;7.38;;;;;;;33.27;41.70;97552.28;5120152;27;20704;-71
2022/06/02 02:21:01;;;;;;;31.80;9.05;;;;;;;33.27;46.12;97554.94;5122080;27;20128;-73
2022/06/02 02:24:08;;;;;;;25.63;8.60;;;;;;;33.49;44.97;97561.53;5104292;27;20051;-71
2022/06/02 02:27:07;;;;;;;26.70;7.25;;;;;;;33.47;47.00;97557.44;5126155;27;20058;-71
2022/06/02 02:30:16;;;;;;;27.50;7.95;;;;;;;34.04;41.04;97557.13;5118919;27;20051;-70
2022/06/02 02:33:37;;;;;;;23.00;7.20;;;;;;;34.69;39.83;97559.22;5125715;27;20072;-71
2022/06/02 02:37:15;;;;;;;24.90;7.65;;;;;;;34.67;37.45;97555.94;5113671;27;20719;-73
2022/06/02 02:40:03;;;;;;;22.83;6.85;;;;;;;34.76;39.60;97549.28;5123494;27;20043;-73
2022/06/02 02:43:10;;;;;;;24.98;7.22;;;;;;;35.05;38.27;97547.59;5117442;27;20043;-72
2022/06/02 02:46:29;;;;;;;29.13;6.82;;;;;;;35.19;45.08;97554.41;5102150;27;20409;-72
2022/06/02 02:49:34;;;;;;;28.73;7.28;;;;;;;35.33;37.55;97560.38;5118387;27;20051;-73
2022/06/02 02:53:07;;;;;;;34.75;7.35;;;;;;;35.60;36.38;97562.38;5123947;27;20047;-74
2022/06/02 02:55:47;;;;;;;28.92;8.00;;;;;;;36.11;35.83;97560.03;5124414;27;20039;-72
2022/06/02 02:59:15;;;;;;;24.33;7.72;;;;;;;35.87;36.75;97564.63;5125153;27;20124;-74
2022/06/02 03:02:35;;;;;;;34.92;7.82;;;;;;;36.16;36.30;97560.16;5021185;28;20483;-74
2022/06/02 03:05:38;;;;;;;25.23;7.03;;;;;;;36.14;34.59;97554.22;5006138;28;20423;-73
2022/06/02 03:08:54;;;;;;;26.90;7.93;;;;;;;36.87;33.60;97557.06;5107698;27;20047;-73
2022/06/02 03:11:54;;;;;;;25.33;7.25;;;;;;;36.33;32.91;97569.13;5125009;27;20051;-72
2022/06/02 03:15:03;;;;;;;36.78;8.23;;;;;;;37.00;37.91;97575.56;5106236;28;20108;-72
2022/06/02 03:17:51;;;;;;;33.47;7.25;;;;;;;37.07;35.61;97573.53;5113613;27;20147;-72
2022/06/02 03:21:05;;;;;;;22.52;6.85;;;;;;;37.34;34.25;97568.38;5124716;27;20051;-72
2022/06/02 03:23:57;;;;;;;25.08;8.15;;;;;;;37.36;32.92;97581.53;5124952;27;20115;-72
2022/06/02 03:26:58;;;;;;;19.05;7.18;;;;;;;37.64;38.68;97572.63;5126922;27;20043;-72
2022/06/02 03:29:57;;;;;;;30.30;8.30;;;;;;;37.13;30.50;97587.88;5126318;27;20091;-71
2022/06/02 03:33:14;;;;;;;21.85;7.72;;;;;;;37.29;32.13;97587.06;5124227;27;20152;-72
2022/06/02 03:36:34;;;;;;;;;;;;;;;37.66;32.11;97589.31;5088270;28;20470;-71
2022/06/02 03:39:50;;;;;;;27.10;7.38;;;;;;;37.87;32.80;97593.94;5092696;27;21556;-71
2022/06/02 03:42:38;;;;;;;23.15;7.45;;;;;;;37.91;33.90;97582.44;5115957;27;20428;-71
2022/06/02 03:45:56;;;;;;;30.48;7.28;;;;;;;37.77;31.36;97583.84;5102347;27;20051;-72
2022/06/02 03:49:25;;;;;;;24.55;7.18;;;;;;;37.66;33.09;97583.94;5103724;27;20046;-71
2022/06/02 03:52:26;;;;;;;21.88;7.90;;;;;;;37.77;32.84;97591.91;5074722;27;20053;-71
2022/06/02 03:55:17;;;;;;;27.60;7.70;;;;;;;37.10;31.33;97580.28;5128756;27;20043;-73
2022/06/02 03:58:16;;;;;;;28.95;7.40;;;;;;;37.97;41.51;97575.25;5127134;27;20056;-71
2022/06/02 04:01:09;;;;;;;20.33;6.20;;;;;;;37.96;34.63;97576.31;5126258;27;20059;-72
2022/06/02 04:04:15;;;;;;;28.35;7.13;;;;;;;36.97;31.02;97583.25;5122333;27;20823;-72
2022/06/02 04:07:42;;;;;;;24.35;7.53;;;;;;;37.99;34.64;97581.22;5113839;27;20050;-70
2022/06/02 04:10:42;;;;;;;19.13;6.72;;;;;;;38.56;30.94;97591.66;5123788;27;20055;-70
2022/06/02 04:14:08;;;;;;;25.50;7.90;;;;;;;38.33;36.51;97587.31;5122802;27;20067;-71
2022/06/02 04:17:01;;;;;;;22.05;6.85;;;;;;;37.63;30.51;97592.50;5123342;27;20104;-72
2022/06/02 04:23:53;;;;;;;28.92;7.03;;;;;;;39.07;37.62;97597.63;5110815;27;20473;-69
2022/06/02 04:27:11;;;;;;;36.45;7.95;;;;;;;39.22;30.10;97600.47;5118471;27;20043;-70
2022/06/02 04:30:32;;;;;;;25.00;7.05;;;;;;;39.05;30.58;97600.56;5133144;27;20035;-72
2022/06/02 04:33:59;;;;;;;26.60;7.50;;;;;;;39.22;30.37;97598.56;5094777;27;20462;-73
2022/06/02 04:36:49;;;;;;;28.92;8.25;;;;;;;39.11;32.54;97590.66;5112900;27;20123;-71
2022/06/02 04:39:49;;;;;;;34.60;7.50;;;;;;;39.48;39.40;97588.84;5114361;27;20043;-71
2022/06/02 04:43:09;;;;;;;26.13;8.35;;;;;;;39.12;34.26;97592.28;5114576;27;20035;-71
2022/06/02 04:46:17;;;;;;;23.27;7.93;;;;;;;39.21;32.61;97596.13;5137128;27;20047;-74
2022/06/02 04:49:30;;;;;;;33.10;8.07;;;;;;;39.44;35.84;97590.44;5113147;27;20047;-73
2022/06/02 04:52:11;;;;;;;36.30;8.32;;;;;;;39.03;32.06;97595.44;5125241;27;20099;-72
2022/06/02 04:55:59;;;;;;;39.63;9.20;;;;;;;39.31;29.61;97594.34;5144965;27;20043;-73
2022/06/02 04:58:59;;;;;;;28.50;9.80;;;;;;;39.45;32.32;97591.25;5125645;27;20470;-72
2022/06/02 05:02:00;;;;;;;31.35;11.43;;;;;;;39.67;30.71;97591.97;5104004;28;20532;-72
2022/06/02 05:05:11;;;;;;;38.33;10.43;;;;;;;39.39;29.86;97593.91;5104623;28;20711;-72
2022/06/02 05:08:20;;;;;;;50.38;16.73;;;;;;;39.24;29.84;97598.31;5112877;27;20047;-72
2022/06/02 05:11:35;;;;;;;61.25;25.08;;;;;;;39.22;32.61;97601.28;5104968;28;20100;-72
2022/06/02 05:14:28;;;;;;;82.63;35.13;;;;;;;39.11;32.65;97593.38;5105807;28;20494;-72
2022/06/02 05:17:23;;;;;;;92.40;39.50;;;;;;;39.11;37.20;97599.56;5124785;27;20439;-71
2022/06/02 05:20:23;;;;;;;94.50;44.25;;;;;;;38.63;35.39;97592.31;5124911;28;20035;-72
2022/06/02 05:23:23;;;;;;;91.82;41.72;;;;;;;38.66;33.13;97599.84;5112833;27;20497;-72
2022/06/02 05:26:40;;;;;;;92.18;40.13;;;;;;;38.92;32.87;97596.38;5124548;27;20150;-71
2022/06/02 05:30:09;;;;;;;84.88;41.92;;;;;;;38.76;36.05;97581.13;5122108;27;20055;-71
2022/06/02 05:33:14;;;;;;;67.47;34.17;;;;;;;38.94;36.65;97586.19;5124528;27;20719;-71
2022/06/02 05:36:14;;;;;;;66.75;29.63;;;;;;;38.96;34.80;97592.13;5114707;27;20339;-72
2022/06/02 05:39:27;;;;;;;72.47;30.88;;;;;;;39.12;40.78;97589.56;5125589;27;20050;-73
2022/06/02 05:42:28;;;;;;;73.68;29.25;;;;;;;39.13;38.47;97585.81;5143618;27;20046;-71
2022/06/02 05:45:31;;;;;;;63.00;28.48;;;;;;;39.30;38.25;97592.72;5145293;27;20046;-73
2022/06/02 05:48:37;;;;;;;61.10;25.60;;;;;;;38.50;30.12;97589.97;5126395;27;20062;-71
2022/06/02 05:51:40;;;;;;;62.10;26.02;;;;;;;38.93;29.52;97589.94;5101480;28;20054;-74
2022/06/02 05:55:01;;;;;;;59.70;25.40;;;;;;;39.03;34.20;97584.66;5105382;27;20075;-72
2022/06/02 05:58:00;;;;;;;59.42;26.52;;;;;;;39.37;35.56;97587.09;5112900;27;20047;-69
2022/06/02 06:00:52;;;;;;;49.90;23.98;;;;;;;39.10;30.71;97591.75;5118894;27;20458;-72
2022/06/02 06:03:50;;;;;;;51.33;22.02;;;;;;;39.38;34.13;97586.06;5107430;28;20112;-67
2022/06/02 06:06:48;;;;;;;44.63;20.55;;;;;;;39.40;35.52;97581.25;5111540;27;20042;-69
2022/06/02 06:09:45;;;;;;;48.90;18.17;;;;;;;39.18;34.22;97593.97;5118847;27;20062;-69
2022/06/02 06:12:48;;;;;;;38.47;16.73;;;;;;;39.28;31.14;97584.06;5124704;27;20120;-70
2022/06/02 06:15:43;;;;;;;49.05;15.60;;;;;;;39.30;32.26;97586.50;5107451;28;20702;-71
2022/06/02 06:18:48;;;;;;;33.33;12.55;;;;;;;39.28;33.72;97586.75;5108145;28;20047;-70
2022/06/02 06:21:59;;;;;;;37.75;12.15;;;;;;;38.89;27.08;97585.28;5107548;28;20316;-72
2022/06/02 06:25:06;;;;;;;37.92;13.05;;;;;;;39.23;29.47;97581.34;5106839;27;20160;-72
2022/06/02 06:28:01;;;;;;;28.02;9.88;;;;;;;38.97;28.18;97576.78;5119925;27;20043;-72
2022/06/02 06:30:56;;;;;;;33.15;11.52;;;;;;;39.23;31.82;97580.53;5126342;27;20100;-72
2022/06/02 06:34:12;;;;;;;30.33;10.35;;;;;;;39.21;31.93;97578.06;5114374;27;20051;-72
2022/06/02 06:37:21;;;;;;;30.20;10.07;;;;;;;38.83;27.26;97573.66;5121458;27;20047;-72
2022/06/02 06:40:17;;;;;;;38.60;12.38;;;;;;;39.36;33.72;97558.50;5117896;27;20062;-71
2022/06/02 06:43:44;;;;;;;23.88;6.78;;;;;;;39.43;26.55;97556.47;5123872;27;20050;-71
2022/06/02 06:46:50;;;;;;;27.70;7.78;;;;;;;39.64;30.61;97566.31;5105492;28;20052;-71
2022/06/02 06:50:04;;;;;;;23.80;7.10;;;;;;;39.26;31.41;97556.56;5107339;28;20044;-72
2022/06/02 06:53:19;;;;;;;29.10;6.18;;;;;;;39.35;31.43;97551.53;5120047;27;20063;-73
2022/06/02 06:56:33;;;;;;;32.25;8.70;;;;;;;39.36;31.42;97547.72;5117524;27;20043;-74
2022/06/02 06:59:48;;;;;;;35.70;9.98;;;;;;;39.20;25.62;97548.69;5106987;28;20538;-73
2022/06/02 07:03:13;;;;;;;27.20;8.63;;;;;;;39.35;30.25;97544.22;5111933;27;20053;-73
2022/06/02 07:06:23;;;;;;;23.25;7.60;;;;;;;39.32;29.69;97541.25;5128184;27;20027;-74
2022/06/02 07:09:49;;;;;;;22.33;6.97;;;;;;;39.33;28.11;97532.91;5126809;27;20152;-75
2022/06/02 07:13:01;;;;;;;20.77;6.20;;;;;;;39.28;29.30;97529.34;5107277;28;20039;-74
2022/06/02 07:16:19;;;;;;;30.80;8.57;;;;;;;39.10;29.45;97527.88;5138988;27;20046;-73
2022/06/02 07:19:33;;;;;;;25.88;7.13;;;;;;;39.15;28.63;97536.00;5128468;27;20035;-72
2022/06/02 07:22:31;;;;;;;27.17;6.68;;;;;;;39.10;25.69;97524.34;5117638;27;20059;-73
2022/06/02 07:25:44;;;;;;;36.17;7.07;;;;;;;39.20;26.48;97519.84;5115709;27;20046;-73
2022/06/02 07:28:29;;;;;;;50.17;8.95;;;;;;;39.14;24.95;97517.38;5125534;27;20051;-73
2022/06/02 07:32:06;;;;;;;34.58;6.63;;;;;;;39.07;25.32;97524.84;5115673;27;20082;-73
2022/06/02 07:35:18;;;;;;;36.25;7.95;;;;;;;39.20;26.11;97513.63;5116698;27;20094;-73
2022/06/02 07:38:15;;;;;;;32.88;6.88;;;;;;;39.30;28.47;97505.63;5127457;27;20053;-73
2022/06/02 07:40:58;;;;;;;28.67;6.72;;;;;;;38.91;23.80;97510.41;5127033;27;20051;-74
2022/06/02 07:43:58;;;;;;;28.63;6.38;;;;;;;39.11;25.99;97499.03;5118539;27;20047;-71
2022/06/02 07:47:06;;;;;;;18.70;5.90;;;;;;;38.95;23.43;97503.50;5118747;27;20113;-73
2022/06/02 07:50:13;;;;;;;19.58;6.50;;;;;;;39.06;23.30;97498.97;5126056;27;20100;-73
2022/06/02 07:53:09;;;;;;;14.82;5.15;;;;;;;39.06;22.61;97490.91;5105178;27;20111;-74
2022/06/02 07:56:24;;;;;;;26.02;5.50;;;;;;;39.16;27.03;97493.69;5115413;27;20104;-70
2022/06/02 07:58:59;;;;;;;35.50;8.32;;;;;;;39.23;27.22;97488.88;5126934;27;20039;-71
2022/06/02 08:02:06;;;;;;;25.27;7.13;;;;;;;39.31;27.50;97483.00;5118186;27;20047;-71
2022/06/02 08:05:19;;;;;;;30.35;6.95;;;;;;;39.16;25.63;97477.50;5125790;27;20502;-72
2022/06/02 08:08:29;;;;;;;24.55;6.22;;;;;;;39.14;28.58;97476.94;5126503;27;20051;-74
2022/06/02 08:11:12;;;;;;;23.70;6.13;;;;;;;39.21;27.82;97472.13;5125912;27;20450;-73
2022/06/02 08:14:46;;;;;;;23.02;7.53;;;;;;;38.77;22.99;97472.31;5109389;27;20426;-73
2022/06/02 08:17:35;;;;;;;22.73;6.95;;;;;;;38.81;23.89;97461.81;5121186;27;20458;-74
2022/06/02 08:20:46;;;;;;;27.38;6.05;;;;;;;38.89;23.17;97467.56;5119771;27;20103;-74
2022/06/02 08:23:31;;;;;;;20.98;6.82;;;;;;;38.95;28.55;97463.84;5122072;27;20085;-73
2022/06/02 08:26:40;;;;;;;25.65;7.20;;;;;;;38.94;28.92;97453.38;5107410;27;20047;-73
2022/06/02 08:29:39;;;;;;;26.17;7.82;;;;;;;38.94;25.23;97459.56;5125946;27;20128;-73
2022/06/02 08:32:45;;;;;;;19.80;6.65;;;;;;;38.97;28.98;97459.03;5125808;27;20351;-73
2022/06/02 08:35:49;;;;;;;31.00;6.90;;;;;;;38.99;26.63;97439.91;5126696;27;20046;-73
2022/06/02 08:38:58;;;;;;;25.88;6.95;;;;;;;38.91;27.66;97443.88;5125868;27;20070;-73
2022/06/02 08:41:53;;;;;;;24.83;6.28;;;;;;;38.77;26.38;97437.28;5125234;27;20050;-74
2022/06/02 08:45:11;;;;;;;23.15;6.30;;;;;;;38.83;24.14;97430.88;5126287;27;20051;-73
2022/06/02 08:48:13;;;;;;;26.98;6.30;;;;;;;38.89;24.68;97435.22;5123171;28;20088;-74
2022/06/02 08:51:16;;;;;;;20.27;6.63;;;;;;;38.85;24.47;97431.44;5109966;28;20055;-74
2022/06/02 08:54:17;;;;;;;19.70;5.97;;;;;;;38.86;26.69;97421.47;5125520;28;20042;-73
2022/06/02 08:57:21;;;;;;;19.33;6.47;;;;;;;38.93;27.90;97424.75;5145224;27;20134;-72
2022/06/02 09:00:18;;;;;;;17.20;5.47;;;;;;;38.90;26.54;97418.00;5105178;28;20104;-72
2022/06/02 09:03:12;;;;;;;20.02;5.65;;;;;;;38.84;25.14;97416.34;5105354;28;20096;-73
2022/06/02 09:06:35;;;;;;;32.35;7.30;;;;;;;38.78;28.02;97408.47;5114341;27;20043;-74
2022/06/02 09:09:28;;;;;;;25.10;6.75;;;;;;;38.81;25.48;97414.16;5125346;27;20044;-73
2022/06/02 09:12:50;;;;;;;23.95;6.82;;;;;;;38.74;25.84;97408.16;5121796;27;20052;-70
2022/06/02 09:16:10;;;;;;;18.48;6.35;;;;;;;38.73;27.14;97397.66;5105605;28;20120;-74
2022/06/02 09:19:14;;;;;;;18.23;6.47;;;;;;;38.74;27.09;97402.78;5094387;27;20487;-71
2022/06/02 09:22:08;;;;;;;17.58;6.22;;;;;;;38.51;26.36;97398.56;5125540;27;20055;-72
2022/06/02 09:25:11;;;;;;;23.90;5.38;;;;;;;38.38;26.50;97390.06;5125785;27;20051;-69
2022/06/02 09:28:17;;;;;;;21.42;6.05;;;;;;;38.34;25.08;97389.75;5119489;27;20673;-71
2022/06/02 09:31:00;;;;;;;18.13;5.43;;;;;;;38.29;27.47;97385.16;5128509;27;20482;-72
2022/06/02 09:34:19;;;;;;;15.13;5.88;;;;;;;38.29;27.38;97379.75;5124230;27;20043;-71
2022/06/02 09:37:48;;;;;;;25.90;6.00;;;;;;;38.24;25.93;97374.31;5116162;27;20071;-70
2022/06/02 09:40:55;;;;;;;22.13;6.03;;;;;;;38.27;27.37;97381.88;5119136;27;20120;-71
2022/06/02 09:44:12;;;;;;;27.98;6.10;;;;;;;38.33;23.94;97369.28;5116245;27;20534;-71
2022/06/02 09:47:31;;;;;;;19.17;5.20;;;;;;;38.31;26.21;97370.63;5121556;27;20120;-72
2022/06/02 09:50:29;;;;;;;15.68;4.53;;;;;;;38.21;25.46;97363.25;5116149;27;20055;-71
2022/06/02 09:53:48;;;;;;;16.60;4.85;;;;;;;38.15;25.07;97353.53;5117865;27;20078;-72
2022/06/02 09:56:43;;;;;;;21.25;3.72;;;;;;;38.10;26.78;97358.84;5116341;27;20045;-72
2022/06/02 09:59:41;;;;;;;14.52;4.35;;;;;;;38.14;24.69;97346.50;5107091;28;20036;-69
2022/06/02 10:02:41;;;;;;;22.42;4.20;;;;;;;38.61;20.80;97354.75;5138873;27;20043;-71
2022/06/02 10:06:00;;;;;;;10.05;3.80;;;;;;;38.44;24.79;97348.66;5131353;27;20102;-70
2022/06/02 10:09:21;;;;;;;21.35;5.65;;;;;;;38.37;25.27;97345.38;5129797;27;20050;-73
2022/06/02 10:16:03;;;;;;;27.73;4.53;;;;;;;38.41;23.03;97344.59;5126334;27;20051;-71
2022/06/02 10:19:22;;;;;;;16.15;3.92;;;;;;;38.48;23.56;97342.50;5112826;27;20051;-71
2022/06/02 10:22:54;;;;;;;15.68;5.03;;;;;;;38.48;24.64;97331.72;5124862;27;20047;-70
2022/06/02 10:26:19;;;;;;;16.48;4.63;;;;;;;38.46;24.05;97331.19;5129669;27;20059;-71
2022/06/02 10:29:18;;;;;;;16.15;3.63;;;;;;;38.53;25.69;97334.50;5124759;27;20474;-71
2022/06/02 10:32:41;;;;;;;11.38;3.95;;;;;;;38.39;24.71;97332.47;5127007;27;20142;-71
2022/06/02 10:35:52;;;;;;;22.42;4.10;;;;;;;38.37;24.64;97339.97;5126017;27;20092;-71
2022/06/02 10:38:47;;;;;;;12.25;4.30;;;;;;;38.29;26.12;97325.94;5126207;27;20035;-72
2022/06/02 10:42:13;;;;;;;21.23;3.88;;;;;;;38.26;24.28;97339.06;5126231;27;20419;-72
2022/06/02 10:44:54;;;;;;;28.20;5.18;;;;;;;38.13;26.31;97329.56;5122658;27;20139;-72
2022/06/02 10:48:04;;;;;;;15.80;4.22;;;;;;;38.16;25.61;97329.03;5126238;27;20078;-71
2022/06/02 10:51:16;;;;;;;18.45;5.40;;;;;;;38.00;27.32;97329.91;5114266;27;20130;-71
2022/06/02 10:54:29;;;;;;;18.23;4.65;;;;;;;38.05;24.57;97321.94;5125621;27;20047;-71
2022/06/02 10:57:59;;;;;;;14.80;4.40;;;;;;;37.89;28.63;97314.75;5125783;27;20070;-70
2022/06/02 11:01:05;;;;;;;15.18;4.72;;;;;;;37.75;26.79;97311.66;5086233;28;20287;-71
2022/06/02 11:04:06;;;;;;;17.42;5.90;;;;;;;37.68;27.63;97304.84;5125328;27;20058;-71
2022/06/02 11:07:17;;;;;;;20.07;6.11;;;;;;;37.70;25.49;97313.47;5012076;27;10001217;-72
2022/06/02 11:10:27;;;;;;;19.80;5.47;;;;;;;37.76;25.57;97301.69;5104535;27;20246;-69
2022/06/02 11:13:26;;;;;;;20.75;4.70;;;;;;;37.68;26.95;97299.47;5113433;27;20419;-68
2022/06/02 11:16:42;;;;;;;24.65;5.18;;;;;;;37.67;26.15;97304.06;5123887;27;20046;-69
2022/06/02 11:19:49;;;;;;;25.27;6.35;;;;;;;37.78;23.23;97300.38;5099712;27;20062;-68
2022/06/02 11:22:57;;;;;;;22.50;4.90;;;;;;;37.71;25.48;97293.59;5103485;27;20043;-69
2022/06/02 11:26:26;;;;;;;16.13;5.10;;;;;;;37.84;23.17;97304.75;5120807;27;20050;-68
2022/06/02 11:29:08;;;;;;;28.63;7.40;;;;;;;37.78;25.68;97300.38;5122449;27;20100;-68
2022/06/02 11:31:56;;;;;;;20.27;4.90;;;;;;;37.65;25.42;97298.09;5106387;27;20541;-68
2022/06/02 11:35:00;;;;;;;17.23;5.35;;;;;;;37.58;25.81;97304.72;5122778;27;20103;-67
2022/06/02 11:38:16;;;;;;;24.17;5.78;;;;;;;37.49;25.53;97288.22;5105596;27;20043;-67
2022/06/02 11:41:18;;;;;;;16.33;4.57;;;;;;;37.47;24.45;97291.16;5120212;27;20043;-67
2022/06/02 11:45:02;;;;;;;12.30;3.78;;;;;;;37.42;23.19;97290.28;4739905;27;10000376;-67
2022/06/02 11:47:55;;;;;;;20.02;6.38;;;;;;;37.42;23.93;97288.41;5104751;27;20039;-68
2022/06/02 11:51:18;;;;;;;23.42;5.63;;;;;;;37.41;25.42;97294.03;5124180;27;20039;-69
2022/06/02 11:54:31;;;;;;;18.40;5.10;;;;;;;37.42;22.03;97295.66;5126124;27;20047;-69
2022/06/02 11:57:45;;;;;;;20.40;4.68;;;;;;;37.63;22.67;97286.78;5108700;27;20070;-69
2022/06/02 12:00:44;;;;;;;31.25;5.85;;;;;;;37.50;23.23;97292.53;5124795;27;20051;-71
2022/06/02 12:03:55;;;;;;;23.08;5.40;;;;;;;37.44;23.51;97283.59;5126784;27;20126;-67
2022/06/02 12:07:21;;;;;;;18.90;4.75;;;;;;;37.35;24.10;97284.31;5126364;27;20107;-70
2022/06/02 12:10:43;;;;;;;16.00;4.53;;;;;;;37.18;23.66;97292.44;5125216;27;20054;-67
2022/06/02 12:13:53;;;;;;;18.35;5.15;;;;;;;37.06;24.22;97286.31;5113044;27;20070;-72
2022/06/02 12:17:05;;;;;;;24.40;5.20;;;;;;;36.97;26.11;97279.75;5125748;27;20115;-68
2022/06/02 12:20:03;;;;;;;15.07;5.15;;;;;;;36.88;25.77;97281.25;5125929;27;20039;-68
2022/06/02 12:22:47;;;;;;;16.40;5.05;;;;;;;36.78;26.52;97287.28;5123544;27;20462;-72
2022/06/02 12:26:00;;;;;;;13.52;4.80;;;;;;;36.64;27.46;97297.50;5092607;27;20654;-71
2022/06/02 12:29:09;;;;;;;24.27;5.72;;;;;;;36.55;26.97;97282.09;5118281;27;20143;-70
2022/06/02 12:32:12;;;;;;;19.35;5.72;;;;;;;36.41;25.89;97286.97;5122123;27;20123;-70
2022/06/02 12:35:05;;;;;;;27.30;4.90;;;;;;;36.40;27.63;97293.38;5106166;28;20047;-70
2022/06/02 12:38:30;;;;;;;30.65;4.50;;;;;;;36.35;24.80;97293.31;5128974;27;20051;-70
2022/06/02 12:41:19;;;;;;;;;;;;;;;36.28;25.57;97289.97;5134273;27;20050;-70
2022/06/02 12:44:38;;;;;;;10.32;3.70;;;;;;;36.22;25.94;97290.97;5129763;27;19923;-71
2022/06/02 12:48:05;;;;;;;14.00;4.03;;;;;;;36.11;27.10;97298.00;5129807;27;20107;-70
2022/06/02 12:51:17;;;;;;;19.50;3.92;;;;;;;35.99;27.62;97302.63;5109915;28;20040;-67
2022/06/02 12:54:21;;;;;;;21.20;4.18;;;;;;;35.86;26.72;97293.00;5109014;28;20047;-71
2022/06/02 12:57:34;;;;;;;15.35;4.15;;;;;;;35.72;28.50;97293.53;5105122;28;20082;-68
2022/06/02 13:00:50;;;;;;;21.63;4.27;;;;;;;35.57;28.10;97289.50;5109922;27;20043;-68
2022/06/02 13:04:17;;;;;;;20.70;4.05;;;;;;;35.42;29.46;97294.56;5109910;27;20291;-69
2022/06/02 13:07:45;;;;;;;20.73;4.20;;;;;;;35.24;30.38;97300.88;5092252;28;20558;-67
2022/06/02 13:10:54;;;;;;;14.98;4.47;;;;;;;35.10;27.35;97296.81;5119144;27;20051;-68
2022/06/02 13:14:06;;;;;;;28.92;4.30;;;;;;;35.13;26.05;97308.91;5110945;27;20499;-69
2022/06/02 13:17:35;;;;;;;27.05;4.45;;;;;;;35.07;29.38;97294.59;5124476;27;20163;-70
2022/06/02 13:20:57;;;;;;;29.55;7.82;;;;;;;35.01;27.17;97308.13;5123571;27;20063;-68
2022/06/02 13:24:02;;;;;;;28.58;6.35;;;;;;;34.98;26.19;97306.72;5127150;27;20051;-69
2022/06/02 13:27:15;;;;;;;40.83;5.68;;;;;;;34.96;29.70;97303.50;5109587;27;20046;-70
2022/06/02 13:30:22;;;;;;;34.80;5.85;;;;;;;34.84;28.41;97294.63;5127750;27;20051;-70
2022/06/02 13:33:23;;;;;;;30.13;6.80;;;;;;;34.78;27.66;97303.63;5126422;27;20055;-71
2022/06/02 13:36:48;;;;;;;17.60;4.85;;;;;;;34.70;27.17;97301.25;5110251;27;20116;-68
2022/06/02 13:39:43;;;;;;;31.85;6.53;;;;;;;34.59;32.04;97302.06;5048843;28;20049;-69
2022/06/02 13:42:27;;;;;;;27.63;6.38;;;;;;;34.51;33.85;97305.91;5116326;27;20039;-70
2022/06/02 13:45:32;;;;;;;23.50;5.72;;;;;;;34.37;33.15;97293.78;5127254;27;20039;-69
2022/06/02 13:48:34;;;;;;;36.35;5.93;;;;;;;34.26;32.68;97306.09;5122163;27;20055;-69
2022/06/02 13:51:59;;;;;;;28.65;6.63;;;;;;;34.19;32.87;97302.69;5109486;27;20051;-70
2022/06/02 13:58:29;;;;;;;26.02;6.55;;;;;;;33.94;35.10;97300.19;5125602;27;20055;-70
2022/06/02 14:01:55;;;;;;;25.92;7.20;;;;;;;33.91;30.79;97313.19;5127846;27;20051;-70
2022/06/02 14:04:49;;;;;;;27.52;7.03;;;;;;;33.80;31.64;97312.91;5121589;27;20138;-69
2022/06/02 14:07:43;;;;;;;54.63;8.93;;;;;;;33.70;38.30;97304.59;5127519;27;20047;-68
2022/06/02 14:10:50;;;;;;;29.23;8.13;;;;;;;33.59;37.65;97310.72;5111901;27;20503;-68
2022/06/02 14:14:09;;;;;;;20.10;6.10;;;;;;;33.47;39.79;97314.38;5125953;27;20142;-68
2022/06/02 14:17:35;;;;;;;34.45;7.78;;;;;;;33.38;39.83;97311.19;5114481;27;20039;-66
2022/06/02 14:20:32;;;;;;;31.58;6.32;;;;;;;33.28;38.34;97308.25;5123100;27;20043;-68
2022/06/02 14:23:43;;;;;;;33.97;6.82;;;;;;;33.19;40.86;97317.56;5127134;27;20107;-65
2022/06/02 14:27:01;;;;;;;35.40;7.47;;;;;;;33.10;41.76;97321.56;5125335;27;20039;-66
2022/06/02 14:29:55;;;;;;;35.08;8.00;;;;;;;33.00;40.85;97314.88;5129816;27;20330;-74
2022/06/02 14:32:56;;;;;;;30.67;9.75;;;;;;;32.88;41.62;97321.19;5125424;27;20105;-71
2022/06/02 14:36:06;;;;;;;28.70;7.55;;;;;;;32.80;42.79;97326.78;5095573;27;20059;-74
2022/06/02 14:39:15;;;;;;;34.10;8.45;;;;;;;32.72;41.91;97330.56;5128060;27;20120;-74
2022/06/02 14:45:54;;;;;;;37.40;9.73;;;;;;;32.56;45.15;97329.25;5107300;28;20055;-74
2022/06/02 14:49:20;;;;;;;34.83;7.97;;;;;;;32.47;44.24;97335.06;5120980;27;20059;-73